Terminal Aerodrome Forecast
Issued by NWS

Home | Current Version | Previous Version | Text Only | Print | Product List | Glossary On
Versions: 1 2 3 4 5 6 7 8 9 10 11 12 13 14 15 16 17 18 19 20 21 22 23 24 25 26 27 28 29 30
000
FTAK31 PANC 220540
TAFAIL
TAF
PAIL 220540Z 2206/2306 34005KT P6SM -SHSN VCFG BKN010 OVC020
     FM221400 34005KT P6SM SCT010 BKN030
     FM230000 33005KT P6SM BKN030=

USA.gov is the U.S. government's official web portal to all federal, state and local government web resources and services.